Time;durP1;ratioP1;P1;durP2;ratioP2;P2;SDS_P1;SDS_P2;PMS_P1;PMS_P2;Temp;Humidity;BMP_temperature;BMP_pressure;BME280_temperature;BME280_humidity;BME280_pressure;Samples;Min_cycle;Max_cycle;Signal;HPM_P1;HPM_P2
2021/03/30 00:01:06;;;;;;;5.15;2.58;;;;;14.20;102877.00;;;;5089757;28;20281;-75
2021/03/30 00:03:32;;;;;;;4.80;2.92;;;;;14.20;102873.00;;;;5079084;28;20213;-75
2021/03/30 00:05:59;;;;;;;3.30;2.55;;;;;14.20;102875.00;;;;5089782;28;20679;-75
2021/03/30 00:08:26;;;;;;;3.50;2.53;;;;;14.10;102873.00;;;;5083314;28;20605;-75
2021/03/30 00:10:54;;;;;;;4.03;2.78;;;;;14.10;102883.00;;;;5089977;28;20198;-75
2021/03/30 00:13:21;;;;;;;3.47;2.53;;;;;14.10;102880.00;;;;5090337;28;20218;-75
2021/03/30 00:15:48;;;;;;;4.57;2.72;;;;;14.00;102889.00;;;;5088760;28;20229;-75
2021/03/30 00:18:15;;;;;;;4.38;2.28;;;;;14.00;102882.00;;;;5090742;28;20209;-75
2021/03/30 00:20:42;;;;;;;3.10;2.22;;;;;14.00;102879.00;;;;5090888;28;20201;-75
2021/03/30 00:23:09;;;;;;;4.25;2.90;;;;;13.90;102875.00;;;;5090450;28;20198;-75
2021/03/30 00:25:36;;;;;;;5.28;3.03;;;;;13.90;102879.00;;;;5088533;28;20210;-75
2021/03/30 00:28:04;;;;;;;3.67;2.58;;;;;13.80;102881.00;;;;5069350;28;20203;-75
2021/03/30 00:30:31;;;;;;;3.95;2.42;;;;;13.80;102873.00;;;;5074155;28;20203;-75
2021/03/30 00:32:58;;;;;;;3.45;2.38;;;;;13.80;102871.00;;;;5085027;28;20187;-75
2021/03/30 00:35:25;;;;;;;6.32;3.10;;;;;13.70;102876.00;;;;5089326;28;20281;-75
2021/03/30 00:37:51;;;;;;;3.35;2.63;;;;;13.70;102871.00;;;;5083705;28;20199;-74
2021/03/30 00:40:18;;;;;;;3.80;2.90;;;;;13.60;102870.00;;;;5078863;28;20197;-75
2021/03/30 00:42:45;;;;;;;3.53;2.78;;;;;13.60;102859.00;;;;5088865;28;20214;-75
2021/03/30 00:45:14;;;;;;;4.47;2.70;;;;;13.60;102861.00;;;;5089325;28;20202;-75
2021/03/30 00:47:45;;;;;;;2.92;2.28;;;;;13.50;102865.00;;;;5088518;28;20206;-75
2021/03/30 00:50:16;;;;;;;5.88;2.75;;;;;13.50;102865.00;;;;5089141;28;20258;-74
2021/03/30 00:52:43;;;;;;;3.70;2.80;;;;;13.40;102865.00;;;;5088556;28;20921;-75
2021/03/30 00:55:11;;;;;;;4.97;2.83;;;;;13.40;102861.00;;;;5081424;28;20767;-75
2021/03/30 00:57:38;;;;;;;2.80;2.05;;;;;13.40;102862.00;;;;5088279;28;20201;-75
2021/03/30 01:00:08;;;;;;;3.05;2.33;;;;;13.30;102867.00;;;;5084836;28;20187;-75
2021/03/30 01:02:36;;;;;;;3.30;2.42;;;;;13.20;102851.00;;;;5083095;28;20213;-75
2021/03/30 01:05:03;;;;;;;2.90;2.17;;;;;13.20;102858.00;;;;5074286;28;20195;-75
2021/03/30 01:07:31;;;;;;;4.50;2.75;;;;;13.20;102854.00;;;;5084229;28;20681;-75
2021/03/30 01:10:09;;;;;;;4.20;2.88;;;;;13.10;102854.00;;;;5087165;28;20669;-75
2021/03/30 01:12:51;;;;;;;3.55;2.58;;;;;13.10;102857.00;;;;5089762;28;20198;-75
2021/03/30 01:15:26;;;;;;;4.90;2.47;;;;;13.00;102859.00;;;;5089448;28;20230;-75
2021/03/30 01:18:04;;;;;;;6.18;2.90;;;;;13.00;102853.00;;;;5088533;28;20194;-75
2021/03/30 01:21:13;;;;;;;3.78;2.70;;;;;12.90;102858.00;;;;5089110;28;20601;-74
2021/03/30 01:23:58;;;;;;;5.07;3.10;;;;;12.90;102857.00;;;;5067096;28;20194;-75
2021/03/30 01:26:39;;;;;;;5.55;2.17;;;;;12.80;102850.00;;;;5087964;28;20255;-74
2021/03/30 01:29:26;;;;;;;4.32;2.53;;;;;12.80;102847.00;;;;5080572;28;20256;-74
2021/03/30 01:31:59;;;;;;;4.15;2.72;;;;;12.80;102843.00;;;;5067692;28;20206;-75
2021/03/30 01:34:26;;;;;;;4.95;2.70;;;;;12.80;102848.00;;;;5078950;28;20222;-75
2021/03/30 01:36:57;;;;;;;4.47;2.67;;;;;12.80;102848.00;;;;5089079;28;20194;-75
2021/03/30 01:39:25;;;;;;;4.07;2.83;;;;;12.70;102843.00;;;;5073278;28;20222;-75
2021/03/30 01:41:53;;;;;;;6.45;3.63;;;;;12.70;102849.00;;;;5088593;28;20209;-75
2021/03/30 01:44:23;;;;;;;5.15;3.00;;;;;12.70;102846.00;;;;5088782;28;20240;-74
2021/03/30 01:46:51;;;;;;;4.80;2.88;;;;;12.60;102846.00;;;;5084990;28;20618;-75
2021/03/30 01:49:20;;;;;;;4.90;3.25;;;;;12.60;102848.00;;;;5088686;28;20190;-75
2021/03/30 01:51:47;;;;;;;5.63;3.35;;;;;12.60;102843.00;;;;5088455;28;20655;-75
2021/03/30 01:54:15;;;;;;;5.72;3.28;;;;;12.60;102846.00;;;;5077254;28;20637;-75
2021/03/30 01:56:44;;;;;;;4.75;3.45;;;;;12.50;102844.00;;;;5073658;28;20194;-74
2021/03/30 01:59:14;;;;;;;4.72;3.28;;;;;12.50;102851.00;;;;5086353;28;20248;-75
2021/03/30 02:01:45;;;;;;;4.85;3.50;;;;;12.50;102847.00;;;;5078206;28;20194;-75
2021/03/30 02:04:13;;;;;;;5.47;3.60;;;;;12.40;102850.00;;;;5087964;28;20209;-75
2021/03/30 02:06:42;;;;;;;6.28;3.63;;;;;12.40;102846.00;;;;5087139;28;20561;-75
2021/03/30 02:09:15;;;;;;;6.03;3.63;;;;;12.40;102847.00;;;;5074473;28;20263;-75
2021/03/30 02:11:45;;;;;;;6.72;4.07;;;;;12.40;102856.00;;;;5068640;28;20203;-74
2021/03/30 02:14:13;;;;;;;5.82;3.80;;;;;12.30;102854.00;;;;5068852;28;20222;-75
2021/03/30 02:16:48;;;;;;;5.20;3.80;;;;;12.30;102852.00;;;;5076804;28;20214;-75
2021/03/30 02:19:18;;;;;;;7.40;4.78;;;;;12.30;102851.00;;;;5087736;28;20201;-75
2021/03/30 02:21:47;;;;;;;6.85;4.60;;;;;12.20;102843.00;;;;5082834;28;20187;-75
2021/03/30 02:24:15;;;;;;;11.82;5.05;;;;;12.20;102852.00;;;;5069573;28;20191;-75
2021/03/30 02:26:47;;;;;;;7.07;5.05;;;;;12.20;102846.00;;;;5083206;28;20210;-75
2021/03/30 02:29:17;;;;;;;8.73;5.10;;;;;12.20;102848.00;;;;5088058;28;20194;-75
2021/03/30 02:31:45;;;;;;;7.10;5.43;;;;;12.20;102846.00;;;;5086136;28;20635;-75
2021/03/30 02:34:14;;;;;;;11.35;5.15;;;;;12.10;102842.00;;;;5079877;28;20214;-75
2021/03/30 02:36:43;;;;;;;7.20;4.70;;;;;12.10;102852.00;;;;5069376;28;20333;-75
2021/03/30 02:39:12;;;;;;;6.25;4.45;;;;;12.10;102845.00;;;;5085124;28;20244;-75
2021/03/30 02:41:42;;;;;;;10.57;5.18;;;;;12.10;102849.00;;;;5084666;28;20692;-75
2021/03/30 02:44:10;;;;;;;9.05;5.55;;;;;12.10;102843.00;;;;5068406;28;20226;-74
2021/03/30 02:46:38;;;;;;;8.30;5.60;;;;;12.00;102848.00;;;;5076111;28;20194;-74
2021/03/30 02:49:06;;;;;;;10.98;5.97;;;;;12.00;102844.00;;;;5087214;28;20335;-75
2021/03/30 02:51:34;;;;;;;8.45;5.25;;;;;12.00;102836.00;;;;5088325;28;20194;-74
2021/03/30 02:54:02;;;;;;;9.90;5.05;;;;;12.00;102843.00;;;;5080017;28;20233;-74
2021/03/30 02:56:30;;;;;;;9.07;5.07;;;;;12.00;102836.00;;;;5070454;28;20206;-75
2021/03/30 02:58:57;;;;;;;8.13;5.32;;;;;11.90;102841.00;;;;5078043;28;20465;-75
2021/03/30 03:01:25;;;;;;;8.40;4.97;;;;;11.90;102838.00;;;;5087098;28;20194;-75
2021/03/30 03:03:53;;;;;;;7.97;4.88;;;;;11.90;102842.00;;;;5074539;28;20195;-75
2021/03/30 03:06:20;;;;;;;6.63;4.65;;;;;11.90;102847.00;;;;5074820;28;20679;-75
2021/03/30 03:08:51;;;;;;;7.70;4.93;;;;;11.80;102852.00;;;;5085307;28;20251;-75
2021/03/30 03:11:19;;;;;;;9.38;4.68;;;;;11.80;102846.00;;;;5086551;28;20206;-75
2021/03/30 03:13:49;;;;;;;8.55;5.13;;;;;11.80;102857.00;;;;5086667;28;20885;-75
2021/03/30 03:16:19;;;;;;;8.73;5.57;;;;;11.80;102844.00;;;;5088211;28;20231;-75
2021/03/30 03:18:46;;;;;;;8.30;5.25;;;;;11.80;102851.00;;;;5086205;28;20206;-75
2021/03/30 03:21:15;;;;;;;9.63;5.22;;;;;11.70;102852.00;;;;5084651;28;20198;-75
2021/03/30 03:23:42;;;;;;;24.15;6.03;;;;;11.70;102852.00;;;;5086435;28;20191;-75
2021/03/30 03:26:12;;;;;;;6.80;5.13;;;;;11.70;102849.00;;;;5087325;28;20802;-74
2021/03/30 03:28:40;;;;;;;7.22;4.65;;;;;11.70;102842.00;;;;5086960;28;20227;-74
2021/03/30 03:31:07;;;;;;;7.18;5.13;;;;;11.70;102850.00;;;;5090628;28;20221;-75
2021/03/30 03:33:34;;;;;;;9.63;5.45;;;;;11.60;102854.00;;;;5088862;28;20221;-75
2021/03/30 03:36:04;;;;;;;7.88;5.10;;;;;11.60;102850.00;;;;5091263;28;20190;-74
2021/03/30 03:38:31;;;;;;;8.82;5.57;;;;;11.60;102853.00;;;;5090516;28;20206;-74
2021/03/30 03:40:58;;;;;;;8.48;5.28;;;;;11.60;102852.00;;;;5090588;28;20206;-74
2021/03/30 03:43:25;;;;;;;10.77;5.60;;;;;11.50;102853.00;;;;5089708;28;20222;-75
2021/03/30 03:45:52;;;;;;;8.00;5.03;;;;;11.50;102850.00;;;;5079555;28;20249;-75
2021/03/30 03:48:19;;;;;;;8.93;5.43;;;;;11.50;102850.00;;;;5091103;28;20196;-74
2021/03/30 03:50:47;;;;;;;9.93;5.95;;;;;11.50;102859.00;;;;5087994;28;20215;-75
2021/03/30 03:53:17;;;;;;;8.10;4.97;;;;;11.50;102859.00;;;;5077266;28;20664;-74
2021/03/30 03:55:49;;;;;;;11.95;5.45;;;;;11.40;102856.00;;;;5083960;28;20194;-74
2021/03/30 03:58:21;;;;;;;7.43;4.75;;;;;11.40;102854.00;;;;5089477;28;20667;-75
2021/03/30 04:00:49;;;;;;;10.70;5.15;;;;;11.40;102846.00;;;;5082377;28;20654;-75
2021/03/30 04:03:22;;;;;;;7.55;4.95;;;;;11.40;102859.00;;;;5070137;28;20711;-74
2021/03/30 04:06:02;;;;;;;8.30;5.28;;;;;11.30;102857.00;;;;5068328;28;20211;-74
2021/03/30 04:08:34;;;;;;;7.93;5.35;;;;;11.30;102867.00;;;;5081701;28;20190;-75
2021/03/30 04:11:04;;;;;;;6.82;4.85;;;;;11.30;102864.00;;;;5089808;28;20198;-74
2021/03/30 04:13:32;;;;;;;11.18;5.57;;;;;11.30;102860.00;;;;5071558;28;20187;-75
2021/03/30 04:16:03;;;;;;;10.10;4.80;;;;;11.30;102870.00;;;;5081995;28;20201;-74
2021/03/30 04:18:31;;;;;;;8.98;5.93;;;;;11.30;102863.00;;;;5089167;28;20602;-74
2021/03/30 04:21:00;;;;;;;11.07;5.57;;;;;11.30;102864.00;;;;5090364;28;20225;-74
2021/03/30 04:23:27;;;;;;;11.15;5.82;;;;;11.20;102868.00;;;;5088599;28;20198;-75
2021/03/30 04:25:54;;;;;;;10.32;6.05;;;;;11.20;102859.00;;;;5088066;28;20197;-74
2021/03/30 04:28:20;;;;;;;7.47;4.90;;;;;11.20;102863.00;;;;5081894;28;20710;-74
2021/03/30 04:30:47;;;;;;;8.35;5.88;;;;;11.20;102863.00;;;;5075388;28;20222;-74
2021/03/30 04:33:15;;;;;;;7.90;5.43;;;;;11.20;102870.00;;;;5079747;28;20599;-75
2021/03/30 04:35:42;;;;;;;9.02;5.55;;;;;11.10;102873.00;;;;5081367;28;20287;-75
2021/03/30 04:38:08;;;;;;;8.95;5.43;;;;;11.10;102873.00;;;;5076683;28;20198;-75
2021/03/30 04:40:35;;;;;;;9.18;5.28;;;;;11.10;102876.00;;;;5077736;28;20187;-75
2021/03/30 04:43:02;;;;;;;9.15;5.45;;;;;11.10;102881.00;;;;5072563;28;20568;-75
2021/03/30 04:45:30;;;;;;;9.88;5.60;;;;;11.10;102874.00;;;;5070004;28;20680;-75
2021/03/30 04:47:56;;;;;;;10.73;6.47;;;;;11.10;102869.00;;;;5071839;28;20585;-75
2021/03/30 04:50:24;;;;;;;8.10;5.28;;;;;11.10;102876.00;;;;5083764;28;20821;-75
2021/03/30 04:52:51;;;;;;;12.95;6.15;;;;;11.10;102884.00;;;;5077477;28;20201;-75
2021/03/30 04:55:18;;;;;;;10.50;6.40;;;;;11.00;102880.00;;;;5069043;28;20241;-75
2021/03/30 04:57:45;;;;;;;11.13;6.70;;;;;11.10;102881.00;;;;5072810;28;20198;-75
2021/03/30 05:00:15;;;;;;;11.30;6.18;;;;;11.00;102879.00;;;;5079756;28;20212;-75
2021/03/30 05:02:42;;;;;;;9.77;5.90;;;;;11.00;102882.00;;;;5088114;28;20729;-75
2021/03/30 05:05:09;;;;;;;11.43;6.32;;;;;11.00;102878.00;;;;5070158;28;20211;-75
2021/03/30 05:07:37;;;;;;;11.05;5.80;;;;;11.00;102884.00;;;;5079579;28;20572;-76
2021/03/30 05:10:05;;;;;;;10.82;5.85;;;;;11.00;102883.00;;;;5085032;28;20202;-75
2021/03/30 05:12:31;;;;;;;11.27;5.82;;;;;11.00;102883.00;;;;5088346;28;20248;-76
2021/03/30 05:14:58;;;;;;;9.40;5.97;;;;;11.00;102882.00;;;;5089514;28;20804;-76
2021/03/30 05:17:25;;;;;;;12.90;6.63;;;;;11.00;102883.00;;;;5076741;28;20229;-75
2021/03/30 05:19:51;;;;;;;10.13;5.85;;;;;11.00;102880.00;;;;5088196;28;20203;-75
2021/03/30 05:22:18;;;;;;;8.50;4.97;;;;;11.00;102888.00;;;;5087681;28;20198;-76
2021/03/30 05:24:46;;;;;;;8.77;5.68;;;;;11.00;102898.00;;;;5084333;28;20196;-75
2021/03/30 05:27:12;;;;;;;9.98;6.40;;;;;11.00;102897.00;;;;5086568;28;20194;-75
2021/03/30 05:29:43;;;;;;;9.00;5.20;;;;;11.00;102903.00;;;;5075800;28;20191;-74
2021/03/30 05:32:11;;;;;;;12.35;6.70;;;;;11.00;102904.00;;;;5086498;28;20221;-74
2021/03/30 05:34:38;;;;;;;12.00;6.28;;;;;11.00;102899.00;;;;5086516;28;20217;-75
2021/03/30 05:37:05;;;;;;;10.52;6.15;;;;;11.00;102899.00;;;;5089284;28;20199;-75
2021/03/30 05:39:32;;;;;;;10.82;6.25;;;;;11.00;102903.00;;;;5069360;28;20214;-75
2021/03/30 05:42:00;;;;;;;10.18;5.60;;;;;11.00;102901.00;;;;5087074;28;20452;-75
2021/03/30 05:44:28;;;;;;;10.07;6.07;;;;;11.00;102904.00;;;;5089137;28;20239;-74
2021/03/30 05:47:09;;;;;;;12.40;6.38;;;;;11.00;102901.00;;;;5089453;28;20206;-74
2021/03/30 05:49:38;;;;;;;9.20;5.95;;;;;11.00;102905.00;;;;5088383;28;20240;-74
2021/03/30 05:52:09;;;;;;;12.57;6.30;;;;;11.00;102911.00;;;;5087908;28;20278;-74
2021/03/30 05:54:37;;;;;;;12.30;7.45;;;;;11.10;102921.00;;;;5081635;28;20222;-75
2021/03/30 05:57:06;;;;;;;12.73;6.95;;;;;11.10;102919.00;;;;5081204;28;20202;-75
2021/03/30 05:59:36;;;;;;;12.77;7.03;;;;;11.10;102923.00;;;;5081312;28;20260;-74
2021/03/30 06:02:05;;;;;;;11.15;6.75;;;;;11.10;102923.00;;;;5085151;28;20602;-75
2021/03/30 06:04:33;;;;;;;12.70;7.32;;;;;11.20;102924.00;;;;5086383;28;20613;-75
2021/03/30 06:07:00;;;;;;;13.10;7.30;;;;;11.20;102937.00;;;;5087108;28;20206;-75
2021/03/30 06:09:26;;;;;;;15.43;8.07;;;;;11.20;102936.00;;;;5085887;28;20198;-75
2021/03/30 06:11:53;;;;;;;12.27;7.53;;;;;11.20;102941.00;;;;5086678;28;20229;-75
2021/03/30 06:14:39;;;;;;;12.38;7.53;;;;;11.20;102942.00;;;;5086932;28;20688;-75
2021/03/30 06:17:08;;;;;;;12.40;6.75;;;;;11.30;102946.00;;;;5088843;28;20210;-75
2021/03/30 06:19:51;;;;;;;12.85;7.57;;;;;11.30;102944.00;;;;5088969;28;20268;-75
2021/03/30 06:22:19;;;;;;;12.40;7.22;;;;;11.40;102937.00;;;;5088356;28;20605;-75
2021/03/30 06:24:46;;;;;;;11.23;6.75;;;;;11.50;102935.00;;;;5087986;28;20194;-75
2021/03/30 06:27:37;;;;;;;14.40;7.97;;;;;11.50;102944.00;;;;5089019;28;20220;-75
2021/03/30 06:30:07;;;;;;;10.82;6.50;;;;;11.60;102947.00;;;;5058144;28;20214;-75
2021/03/30 06:32:36;;;;;;;14.27;7.78;;;;;11.70;102942.00;;;;5071443;28;20685;-75
2021/03/30 06:35:14;;;;;;;13.57;7.47;;;;;11.70;102941.00;;;;5066638;28;20223;-75
2021/03/30 06:37:42;;;;;;;12.20;6.85;;;;;11.80;102943.00;;;;5068798;28;20195;-75
2021/03/30 06:40:19;;;;;;;14.77;7.43;;;;;11.80;102943.00;;;;5066601;28;20202;-75
2021/03/30 06:42:50;;;;;;;13.55;7.97;;;;;12.00;102945.00;;;;5066549;28;20293;-75
2021/03/30 06:45:20;;;;;;;15.10;7.43;;;;;12.00;102943.00;;;;5066287;28;20195;-75
2021/03/30 06:47:49;;;;;;;15.45;7.63;;;;;12.20;102945.00;;;;5068716;28;20244;-76
2021/03/30 06:50:24;;;;;;;13.75;8.50;;;;;12.30;102946.00;;;;5088771;28;20726;-75
2021/03/30 06:52:50;;;;;;;16.33;9.32;;;;;12.40;102947.00;;;;5087136;28;20552;-75
2021/03/30 06:55:26;;;;;;;18.17;9.40;;;;;12.40;102949.00;;;;5086064;28;20226;-75
2021/03/30 06:57:58;;;;;;;14.20;8.32;;;;;12.60;102958.00;;;;5083076;28;20202;-76
2021/03/30 07:00:30;;;;;;;29.48;10.38;;;;;12.70;102956.00;;;;5077222;28;20222;-76
2021/03/30 07:02:59;;;;;;;15.15;9.20;;;;;12.80;102950.00;;;;5070863;28;20191;-75
2021/03/30 07:05:29;;;;;;;15.32;9.07;;;;;13.00;102957.00;;;;5078830;28;20281;-75
2021/03/30 07:07:58;;;;;;;14.07;8.95;;;;;13.10;102962.00;;;;5076678;28;20194;-75
2021/03/30 07:10:26;;;;;;;14.05;9.05;;;;;13.20;102962.00;;;;5088677;28;20197;-75
2021/03/30 07:12:54;;;;;;;17.45;10.18;;;;;13.30;102963.00;;;;5090158;28;20573;-76
2021/03/30 07:15:23;;;;;;;16.15;9.68;;;;;13.50;102972.00;;;;5090754;28;20961;-75
2021/03/30 07:18:04;;;;;;;20.67;10.35;;;;;13.60;102970.00;;;;5089045;28;20292;-76
2021/03/30 07:20:33;;;;;;;15.55;9.27;;;;;13.70;102977.00;;;;5088698;28;20182;-75
2021/03/30 07:23:06;;;;;;;16.42;9.20;;;;;13.80;102969.00;;;;5089234;28;20257;-76
2021/03/30 07:25:39;;;;;;;16.48;9.48;;;;;13.90;102970.00;;;;5090362;28;20198;-76
2021/03/30 07:28:11;;;;;;;17.02;10.45;;;;;14.10;102971.00;;;;5089007;28;20190;-76
2021/03/30 07:30:43;;;;;;;16.77;9.70;;;;;14.20;102976.00;;;;5086464;28;20642;-76
2021/03/30 07:33:18;;;;;;;18.75;9.68;;;;;14.30;102972.00;;;;5091302;28;20221;-76
2021/03/30 07:35:45;;;;;;;16.73;9.43;;;;;14.40;102980.00;;;;5086559;28;20221;-76
2021/03/30 07:38:17;;;;;;;19.92;9.85;;;;;14.50;102981.00;;;;5087119;28;20194;-75
2021/03/30 07:40:45;;;;;;;16.63;9.45;;;;;14.70;102984.00;;;;5089181;28;20571;-75
2021/03/30 07:43:19;;;;;;;17.42;10.38;;;;;14.80;102976.00;;;;5084824;28;20218;-76
2021/03/30 07:45:47;;;;;;;18.25;10.32;;;;;14.90;102985.00;;;;5090761;28;20199;-76
2021/03/30 07:48:17;;;;;;;15.60;9.63;;;;;15.00;102990.00;;;;5091608;28;20205;-76
2021/03/30 07:50:53;;;;;;;15.65;9.15;;;;;15.10;102986.00;;;;5090058;28;20225;-76
2021/03/30 07:53:36;;;;;;;17.38;10.13;;;;;15.10;102987.00;;;;5078929;28;20285;-76
2021/03/30 07:56:03;;;;;;;17.52;10.23;;;;;15.30;102988.00;;;;5075084;28;20202;-76
2021/03/30 07:58:37;;;;;;;17.33;10.70;;;;;15.40;102985.00;;;;5083495;28;20202;-76
2021/03/30 08:01:05;;;;;;;16.08;9.90;;;;;15.50;102996.00;;;;5085639;28;20656;-76
2021/03/30 08:03:35;;;;;;;15.50;9.55;;;;;15.60;102993.00;;;;5087714;28;20202;-76
2021/03/30 08:06:20;;;;;;;16.23;9.20;;;;;15.60;102992.00;;;;5084030;28;20205;-76
2021/03/30 08:08:55;;;;;;;16.05;9.23;;;;;15.80;102990.00;;;;5086142;28;20194;-76
2021/03/30 08:11:45;;;;;;;17.83;10.85;;;;;15.80;102998.00;;;;5085212;28;20233;-76
2021/03/30 08:14:36;;;;;;;16.33;9.52;;;;;16.00;102993.00;;;;5090309;28;20222;-76
2021/03/30 08:17:05;;;;;;;14.45;8.95;;;;;16.10;102998.00;;;;5084179;28;20632;-76
2021/03/30 08:19:33;;;;;;;18.15;9.48;;;;;16.20;102998.00;;;;5088697;28;20660;-76
2021/03/30 08:22:01;;;;;;;15.63;9.38;;;;;16.40;102996.00;;;;5090160;28;20382;-76
2021/03/30 08:24:46;;;;;;;16.13;9.85;;;;;16.50;102994.00;;;;5086032;28;20201;-76
2021/03/30 08:27:38;;;;;;;14.80;9.15;;;;;16.60;102989.00;;;;5078381;28;20203;-77
2021/03/30 08:30:13;;;;;;;14.98;9.18;;;;;16.80;102995.00;;;;5075217;28;20654;-76
2021/03/30 08:32:44;;;;;;;19.95;9.23;;;;;16.90;102998.00;;;;5086457;28;20562;-77
2021/03/30 08:35:31;;;;;;;14.93;9.32;;;;;17.00;103002.00;;;;5087261;28;20363;-76
2021/03/30 08:37:59;;;;;;;15.98;10.20;;;;;17.20;103007.00;;;;5087285;28;20683;-76
2021/03/30 08:40:43;;;;;;;17.13;10.80;;;;;17.20;103005.00;;;;5086285;28;20276;-77
2021/03/30 08:43:21;;;;;;;17.00;9.63;;;;;17.40;103011.00;;;;5087775;28;20222;-77
2021/03/30 08:46:01;;;;;;;15.30;8.98;;;;;17.50;103008.00;;;;5087142;28;20548;-76
2021/03/30 08:48:37;;;;;;;15.45;9.05;;;;;17.70;103009.00;;;;5088686;28;20287;-77
2021/03/30 08:51:07;;;;;;;15.32;9.80;;;;;17.90;103013.00;;;;5088642;28;20731;-77
2021/03/30 08:53:34;;;;;;;15.50;9.43;;;;;18.00;103014.00;;;;5089683;28;20194;-76
2021/03/30 08:56:06;;;;;;;20.63;9.85;;;;;18.20;103016.00;;;;5088457;28;20222;-76
2021/03/30 08:58:35;;;;;;;17.23;9.15;;;;;18.30;103018.00;;;;5079286;28;20206;-77
2021/03/30 09:01:07;;;;;;;17.33;9.85;;;;;18.40;103011.00;;;;5080199;28;20612;-77
2021/03/30 09:03:34;;;;;;;13.85;8.68;;;;;18.60;103010.00;;;;5085404;28;20190;-76
2021/03/30 09:06:01;;;;;;;15.35;8.98;;;;;18.80;103006.00;;;;5085930;28;20252;-77
2021/03/30 09:08:36;;;;;;;14.52;8.75;;;;;18.90;103008.00;;;;5085544;28;20236;-77
2021/03/30 09:11:17;;;;;;;14.43;8.93;;;;;19.00;103009.00;;;;5084178;28;20770;-77
2021/03/30 09:13:56;;;;;;;13.48;7.47;;;;;19.30;103013.00;;;;5088800;28;20236;-77
2021/03/30 09:16:23;;;;;;;15.23;7.50;;;;;19.40;103006.00;;;;5087838;28;20436;-77
2021/03/30 09:18:51;;;;;;;11.05;7.47;;;;;19.60;103015.00;;;;5080436;28;20198;-77
2021/03/30 09:21:21;;;;;;;11.95;7.45;;;;;19.70;103015.00;;;;5089579;28;20252;-77
2021/03/30 09:23:50;;;;;;;13.40;7.40;;;;;19.80;103018.00;;;;5073237;28;20208;-77
2021/03/30 09:26:20;;;;;;;14.65;8.05;;;;;20.00;103025.00;;;;5087674;28;20240;-77
2021/03/30 09:28:49;;;;;;;11.82;7.78;;;;;20.10;103023.00;;;;5088601;28;20198;-77
2021/03/30 09:31:16;;;;;;;13.40;8.15;;;;;20.30;103019.00;;;;5089287;28;20213;-77
2021/03/30 09:33:43;;;;;;;12.30;6.68;;;;;20.40;103024.00;;;;5089849;28;20190;-77
2021/03/30 09:36:13;;;;;;;12.48;7.28;;;;;20.50;103028.00;;;;5091227;28;20246;-76
2021/03/30 09:38:52;;;;;;;15.82;7.97;;;;;20.70;103030.00;;;;5088393;28;20504;-77
2021/03/30 09:41:34;;;;;;;16.90;7.47;;;;;20.80;103027.00;;;;5082175;28;20210;-78
2021/03/30 09:44:02;;;;;;;12.05;7.43;;;;;21.00;103024.00;;;;5073087;28;20222;-77
2021/03/30 09:46:29;;;;;;;10.07;7.35;;;;;21.20;103030.00;;;;5086549;28;20202;-77
2021/03/30 09:49:04;;;;;;;11.18;6.82;;;;;21.30;103030.00;;;;5111756;27;719112;-76
2021/03/30 09:51:32;;;;;;;13.30;8.15;;;;;21.50;103023.00;;;;5117453;28;20186;-77
2021/03/30 09:53:59;;;;;;;15.85;8.25;;;;;21.60;103025.00;;;;5112078;28;20221;-76
2021/03/30 09:56:31;;;;;;;11.82;8.52;;;;;21.70;103031.00;;;;5114333;28;20220;-76
2021/03/30 09:58:59;;;;;;;12.85;7.13;;;;;21.90;103026.00;;;;5123526;28;20730;-76
2021/03/30 10:01:27;;;;;;;9.23;6.40;;;;;22.00;103025.00;;;;5123860;28;20280;-76
2021/03/30 10:03:55;;;;;;;13.10;7.00;;;;;22.20;103022.00;;;;5112309;28;20197;-77
2021/03/30 10:06:22;;;;;;;12.20;7.25;;;;;22.30;103021.00;;;;5111979;28;20269;-76
2021/03/30 10:08:49;;;;;;;9.65;5.93;;;;;22.40;103022.00;;;;5112610;28;20246;-76
2021/03/30 10:11:26;;;;;;;10.40;6.80;;;;;22.50;103030.00;;;;5104448;28;20336;-77
2021/03/30 10:13:53;;;;;;;9.98;6.32;;;;;22.60;103019.00;;;;5105026;28;20205;-77
2021/03/30 10:16:20;;;;;;;12.10;7.25;;;;;22.70;103017.00;;;;5110976;28;20208;-76
2021/03/30 10:18:48;;;;;;;11.70;6.95;;;;;22.80;103013.00;;;;5112748;28;20216;-76
2021/03/30 10:21:17;;;;;;;10.88;6.57;;;;;22.90;103014.00;;;;5108845;28;20201;-76
2021/03/30 10:23:48;;;;;;;11.57;7.65;;;;;23.00;103005.00;;;;5107824;28;20198;-76
2021/03/30 10:26:16;;;;;;;11.93;7.35;;;;;23.10;103002.00;;;;5102380;28;20212;-76
2021/03/30 10:28:52;;;;;;;12.68;8.15;;;;;23.20;103009.00;;;;5111574;28;20559;-76
2021/03/30 10:31:28;;;;;;;12.77;7.05;;;;;23.30;103002.00;;;;5118704;28;20197;-77
2021/03/30 10:33:55;;;;;;;10.25;6.40;;;;;23.50;103009.00;;;;5117435;28;20293;-76
2021/03/30 10:36:22;;;;;;;12.77;7.65;;;;;23.60;102999.00;;;;5108180;28;20217;-76
2021/03/30 10:39:06;;;;;;;9.57;6.65;;;;;23.60;103002.00;;;;5105121;28;20198;-76
2021/03/30 10:41:35;;;;;;;10.48;6.07;;;;;23.80;103004.00;;;;5112472;28;20414;-76
2021/03/30 10:44:02;;;;;;;9.90;5.57;;;;;24.00;103003.00;;;;5103568;28;20302;-74
2021/03/30 10:46:29;;;;;;;9.32;6.20;;;;;24.10;103002.00;;;;5089497;28;20224;-75
2021/03/30 10:49:00;;;;;;;10.05;6.25;;;;;24.20;102999.00;;;;5103526;28;20237;-76
2021/03/30 10:51:28;;;;;;;8.20;5.65;;;;;24.30;102993.00;;;;5103224;28;20618;-75
2021/03/30 10:53:54;;;;;;;9.50;5.85;;;;;24.40;102991.00;;;;5104492;28;20268;-75
2021/03/30 10:56:22;;;;;;;9.60;6.25;;;;;24.50;102990.00;;;;5090576;28;20197;-75
2021/03/30 10:58:49;;;;;;;11.55;7.22;;;;;24.60;102991.00;;;;5086628;28;20417;-75
2021/03/30 11:01:16;;;;;;;10.18;6.68;;;;;24.70;102992.00;;;;5088421;28;20207;-75
2021/03/30 11:03:43;;;;;;;10.73;6.40;;;;;24.70;102984.00;;;;5086758;28;20191;-75
2021/03/30 11:06:10;;;;;;;11.20;6.75;;;;;24.80;102976.00;;;;5088960;28;20218;-75
2021/03/30 11:08:36;;;;;;;11.77;6.32;;;;;24.90;102983.00;;;;5088581;28;20660;-75
2021/03/30 11:11:03;;;;;;;11.88;5.88;;;;;25.00;102984.00;;;;5076299;28;20360;-75
2021/03/30 11:13:31;;;;;;;12.05;6.85;;;;;25.10;102975.00;;;;5089079;28;20198;-75
2021/03/30 11:15:58;;;;;;;14.90;6.82;;;;;25.20;102975.00;;;;5087980;28;20289;-75
2021/03/30 11:18:25;;;;;;;10.15;6.13;;;;;25.30;102973.00;;;;5090410;28;20622;-75
2021/03/30 11:20:51;;;;;;;9.80;6.00;;;;;25.30;102963.00;;;;5090430;28;20205;-75
2021/03/30 11:23:18;;;;;;;12.23;6.65;;;;;25.40;102960.00;;;;5090062;28;20622;-75
2021/03/30 11:25:45;;;;;;;11.52;5.38;;;;;25.50;102958.00;;;;5088614;28;20203;-75
2021/03/30 11:28:13;;;;;;;13.48;5.90;;;;;25.50;102953.00;;;;5090220;28;20229;-75
2021/03/30 11:30:44;;;;;;;9.20;6.03;;;;;25.60;102952.00;;;;5087559;28;20330;-75
2021/03/30 11:33:15;;;;;;;10.80;6.45;;;;;25.70;102947.00;;;;5085085;28;20664;-75
2021/03/30 11:35:48;;;;;;;11.18;5.53;;;;;25.70;102940.00;;;;5078376;28;20576;-75
2021/03/30 11:38:15;;;;;;;10.48;6.85;;;;;25.80;102941.00;;;;5087710;28;20285;-75
2021/03/30 11:40:42;;;;;;;11.02;6.20;;;;;25.80;102937.00;;;;5077292;28;20203;-77
2021/03/30 11:43:08;;;;;;;11.05;6.18;;;;;25.90;102941.00;;;;5083161;28;20218;-76
2021/03/30 11:45:36;;;;;;;13.27;7.72;;;;;25.90;102929.00;;;;5088005;28;20263;-77
2021/03/30 11:48:04;;;;;;;12.85;7.15;;;;;26.00;102927.00;;;;5087392;28;20307;-77
2021/03/30 11:50:31;;;;;;;12.60;7.95;;;;;26.00;102936.00;;;;5088110;28;20569;-76
2021/03/30 11:52:58;;;;;;;10.70;7.13;;;;;26.10;102926.00;;;;5076832;28;20236;-76
2021/03/30 11:55:25;;;;;;;10.75;6.65;;;;;26.10;102929.00;;;;5077963;28;20202;-76
2021/03/30 11:57:53;;;;;;;9.73;6.43;;;;;26.20;102916.00;;;;5089751;28;20203;-77
2021/03/30 12:00:21;;;;;;;12.43;7.65;;;;;26.20;102925.00;;;;5089666;28;20213;-76
2021/03/30 12:02:49;;;;;;;11.18;7.63;;;;;26.20;102921.00;;;;5088281;28;20202;-76
2021/03/30 12:05:20;;;;;;;12.88;7.63;;;;;26.20;102918.00;;;;5088307;28;20202;-76
2021/03/30 12:07:46;;;;;;;12.75;7.93;;;;;26.20;102918.00;;;;5071866;28;20680;-76
2021/03/30 12:10:14;;;;;;;13.32;7.55;;;;;26.20;102920.00;;;;5088813;28;20268;-76
2021/03/30 12:12:41;;;;;;;15.70;8.40;;;;;26.30;102918.00;;;;5080232;28;20660;-76
2021/03/30 12:15:11;;;;;;;17.73;7.43;;;;;26.30;102920.00;;;;5083857;28;20202;-76
2021/03/30 12:17:38;;;;;;;13.63;8.18;;;;;26.30;102907.00;;;;5086819;28;20209;-76